sensor_id;sensor_type;location;lat;lon;timestamp;P1;durP1;ratioP1;P2;durP2;ratioP2
34019;SDS011;20895;51.034;3.742;2023-07-13T00:00:05;11.68;;;2.53;;
34019;SDS011;20895;51.034;3.742;2023-07-13T00:02:34;7.00;;;2.00;;
34019;SDS011;20895;51.034;3.742;2023-07-13T00:05:00;8.23;;;2.97;;
34019;SDS011;20895;51.034;3.742;2023-07-13T00:07:25;8.00;;;1.98;;
34019;SDS011;20895;51.034;3.742;2023-07-13T00:09:51;11.77;;;2.63;;
34019;SDS011;20895;51.034;3.742;2023-07-13T00:12:23;8.38;;;2.03;;
34019;SDS011;20895;51.034;3.742;2023-07-13T00:14:49;8.32;;;2.47;;
34019;SDS011;20895;51.034;3.742;2023-07-13T00:17:15;8.90;;;2.03;;
34019;SDS011;20895;51.034;3.742;2023-07-13T00:19:40;11.27;;;3.25;;
34019;SDS011;20895;51.034;3.742;2023-07-13T00:22:06;7.70;;;2.83;;
34019;SDS011;20895;51.034;3.742;2023-07-13T00:24:31;8.40;;;2.65;;
34019;SDS011;20895;51.034;3.742;2023-07-13T00:26:56;9.20;;;2.85;;
34019;SDS011;20895;51.034;3.742;2023-07-13T00:29:22;7.68;;;2.20;;
34019;SDS011;20895;51.034;3.742;2023-07-13T00:31:47;10.43;;;2.25;;
34019;SDS011;20895;51.034;3.742;2023-07-13T00:34:12;7.50;;;2.10;;
34019;SDS011;20895;51.034;3.742;2023-07-13T00:36:38;7.07;;;3.03;;
34019;SDS011;20895;51.034;3.742;2023-07-13T00:39:03;11.77;;;2.75;;
34019;SDS011;20895;51.034;3.742;2023-07-13T00:41:29;10.00;;;2.70;;
34019;SDS011;20895;51.034;3.742;2023-07-13T00:43:54;12.23;;;3.13;;
34019;SDS011;20895;51.034;3.742;2023-07-13T00:46:22;10.77;;;2.55;;
34019;SDS011;20895;51.034;3.742;2023-07-13T00:48:48;12.27;;;3.05;;
34019;SDS011;20895;51.034;3.742;2023-07-13T00:51:14;10.02;;;2.85;;
34019;SDS011;20895;51.034;3.742;2023-07-13T00:53:39;9.93;;;3.65;;
34019;SDS011;20895;51.034;3.742;2023-07-13T00:56:05;11.80;;;3.25;;
34019;SDS011;20895;51.034;3.742;2023-07-13T00:58:31;9.80;;;3.13;;
34019;SDS011;20895;51.034;3.742;2023-07-13T01:00:57;11.00;;;2.85;;
34019;SDS011;20895;51.034;3.742;2023-07-13T01:03:22;10.13;;;3.33;;
34019;SDS011;20895;51.034;3.742;2023-07-13T01:05:48;7.80;;;2.47;;
34019;SDS011;20895;51.034;3.742;2023-07-13T01:08:14;15.48;;;5.05;;
34019;SDS011;20895;51.034;3.742;2023-07-13T01:10:39;9.73;;;2.83;;
34019;SDS011;20895;51.034;3.742;2023-07-13T01:13:10;8.63;;;2.80;;
34019;SDS011;20895;51.034;3.742;2023-07-13T01:15:40;12.18;;;3.35;;
34019;SDS011;20895;51.034;3.742;2023-07-13T01:18:09;11.32;;;3.67;;
34019;SDS011;20895;51.034;3.742;2023-07-13T01:20:36;7.88;;;2.92;;
34019;SDS011;20895;51.034;3.742;2023-07-13T01:23:10;12.60;;;3.10;;
34019;SDS011;20895;51.034;3.742;2023-07-13T01:25:37;12.45;;;3.55;;
34019;SDS011;20895;51.034;3.742;2023-07-13T01:28:04;14.30;;;2.90;;
34019;SDS011;20895;51.034;3.742;2023-07-13T01:30:29;10.75;;;3.10;;
34019;SDS011;20895;51.034;3.742;2023-07-13T01:32:54;9.32;;;3.42;;
34019;SDS011;20895;51.034;3.742;2023-07-13T01:35:20;8.18;;;2.88;;
34019;SDS011;20895;51.034;3.742;2023-07-13T01:37:45;11.60;;;3.63;;
34019;SDS011;20895;51.034;3.742;2023-07-13T01:40:11;10.35;;;4.28;;
34019;SDS011;20895;51.034;3.742;2023-07-13T01:42:37;9.63;;;3.25;;
34019;SDS011;20895;51.034;3.742;2023-07-13T01:45:02;11.63;;;3.47;;
34019;SDS011;20895;51.034;3.742;2023-07-13T01:47:28;13.15;;;3.63;;
34019;SDS011;20895;51.034;3.742;2023-07-13T01:49:55;10.43;;;3.78;;
34019;SDS011;20895;51.034;3.742;2023-07-13T01:52:20;9.23;;;2.92;;
34019;SDS011;20895;51.034;3.742;2023-07-13T01:54:46;13.07;;;3.25;;
34019;SDS011;20895;51.034;3.742;2023-07-13T01:57:11;12.75;;;3.45;;
34019;SDS011;20895;51.034;3.742;2023-07-13T01:59:36;8.85;;;3.53;;
34019;SDS011;20895;51.034;3.742;2023-07-13T02:02:02;13.18;;;2.97;;
34019;SDS011;20895;51.034;3.742;2023-07-13T02:04:27;15.45;;;5.78;;
34019;SDS011;20895;51.034;3.742;2023-07-13T02:06:52;12.40;;;3.10;;
34019;SDS011;20895;51.034;3.742;2023-07-13T02:09:17;12.55;;;3.45;;
34019;SDS011;20895;51.034;3.742;2023-07-13T02:11:43;16.40;;;5.28;;
34019;SDS011;20895;51.034;3.742;2023-07-13T02:14:08;13.35;;;3.55;;
34019;SDS011;20895;51.034;3.742;2023-07-13T02:16:33;11.32;;;4.32;;
34019;SDS011;20895;51.034;3.742;2023-07-13T02:18:59;14.77;;;5.03;;
34019;SDS011;20895;51.034;3.742;2023-07-13T02:21:25;10.02;;;3.30;;
34019;SDS011;20895;51.034;3.742;2023-07-13T02:23:50;15.50;;;3.58;;
34019;SDS011;20895;51.034;3.742;2023-07-13T02:26:16;15.30;;;4.35;;
34019;SDS011;20895;51.034;3.742;2023-07-13T02:28:41;10.40;;;3.60;;
34019;SDS011;20895;51.034;3.742;2023-07-13T02:31:07;13.18;;;3.58;;
34019;SDS011;20895;51.034;3.742;2023-07-13T02:33:33;12.10;;;3.72;;
34019;SDS011;20895;51.034;3.742;2023-07-13T02:35:58;16.60;;;5.00;;
34019;SDS011;20895;51.034;3.742;2023-07-13T02:38:23;11.18;;;3.75;;
34019;SDS011;20895;51.034;3.742;2023-07-13T02:40:49;15.52;;;3.10;;
34019;SDS011;20895;51.034;3.742;2023-07-13T02:43:14;10.82;;;3.92;;
34019;SDS011;20895;51.034;3.742;2023-07-13T02:45:43;13.40;;;4.20;;
34019;SDS011;20895;51.034;3.742;2023-07-13T02:48:08;11.95;;;3.55;;
34019;SDS011;20895;51.034;3.742;2023-07-13T02:50:33;18.58;;;3.90;;
34019;SDS011;20895;51.034;3.742;2023-07-13T02:52:58;11.10;;;3.92;;
34019;SDS011;20895;51.034;3.742;2023-07-13T02:55:24;9.65;;;3.63;;
34019;SDS011;20895;51.034;3.742;2023-07-13T02:57:49;13.48;;;4.13;;
34019;SDS011;20895;51.034;3.742;2023-07-13T03:00:15;10.45;;;3.60;;
34019;SDS011;20895;51.034;3.742;2023-07-13T03:02:41;10.40;;;3.92;;
34019;SDS011;20895;51.034;3.742;2023-07-13T03:05:06;11.73;;;3.53;;
34019;SDS011;20895;51.034;3.742;2023-07-13T03:07:32;11.93;;;4.00;;
34019;SDS011;20895;51.034;3.742;2023-07-13T03:09:58;9.20;;;3.38;;
34019;SDS011;20895;51.034;3.742;2023-07-13T03:12:23;9.75;;;3.40;;
34019;SDS011;20895;51.034;3.742;2023-07-13T03:14:49;13.85;;;4.00;;
34019;SDS011;20895;51.034;3.742;2023-07-13T03:17:14;13.25;;;3.83;;
34019;SDS011;20895;51.034;3.742;2023-07-13T03:19:39;14.63;;;4.15;;
34019;SDS011;20895;51.034;3.742;2023-07-13T03:22:04;15.57;;;3.90;;
34019;SDS011;20895;51.034;3.742;2023-07-13T03:24:30;9.80;;;3.33;;
34019;SDS011;20895;51.034;3.742;2023-07-13T03:26:57;11.85;;;3.45;;
34019;SDS011;20895;51.034;3.742;2023-07-13T03:29:22;15.93;;;4.55;;
34019;SDS011;20895;51.034;3.742;2023-07-13T03:31:47;13.07;;;3.80;;
34019;SDS011;20895;51.034;3.742;2023-07-13T03:34:12;10.27;;;4.30;;
34019;SDS011;20895;51.034;3.742;2023-07-13T03:36:38;14.35;;;3.75;;
34019;SDS011;20895;51.034;3.742;2023-07-13T03:39:03;12.05;;;4.75;;
34019;SDS011;20895;51.034;3.742;2023-07-13T03:41:28;14.02;;;4.60;;
34019;SDS011;20895;51.034;3.742;2023-07-13T03:43:54;13.57;;;4.45;;
34019;SDS011;20895;51.034;3.742;2023-07-13T03:46:19;13.23;;;3.88;;
34019;SDS011;20895;51.034;3.742;2023-07-13T03:48:45;10.70;;;3.45;;
34019;SDS011;20895;51.034;3.742;2023-07-13T03:51:11;17.42;;;4.20;;
34019;SDS011;20895;51.034;3.742;2023-07-13T03:53:39;13.63;;;4.35;;
34019;SDS011;20895;51.034;3.742;2023-07-13T03:56:06;15.73;;;4.93;;
34019;SDS011;20895;51.034;3.742;2023-07-13T03:58:32;13.52;;;4.40;;
34019;SDS011;20895;51.034;3.742;2023-07-13T04:00:58;14.13;;;4.20;;
34019;SDS011;20895;51.034;3.742;2023-07-13T04:03:23;13.13;;;4.53;;
34019;SDS011;20895;51.034;3.742;2023-07-13T04:05:49;12.40;;;3.85;;
34019;SDS011;20895;51.034;3.742;2023-07-13T04:08:14;9.90;;;3.55;;
34019;SDS011;20895;51.034;3.742;2023-07-13T04:10:39;11.23;;;4.03;;
34019;SDS011;20895;51.034;3.742;2023-07-13T04:13:05;13.98;;;4.07;;
34019;SDS011;20895;51.034;3.742;2023-07-13T04:15:31;10.07;;;5.32;;
34019;SDS011;20895;51.034;3.742;2023-07-13T04:17:56;13.98;;;3.80;;
34019;SDS011;20895;51.034;3.742;2023-07-13T04:20:22;13.27;;;5.20;;
34019;SDS011;20895;51.034;3.742;2023-07-13T04:22:47;13.73;;;3.88;;
34019;SDS011;20895;51.034;3.742;2023-07-13T04:25:12;15.73;;;3.85;;
34019;SDS011;20895;51.034;3.742;2023-07-13T04:27:38;9.82;;;3.10;;
34019;SDS011;20895;51.034;3.742;2023-07-13T04:30:04;19.20;;;5.20;;
34019;SDS011;20895;51.034;3.742;2023-07-13T04:32:30;10.40;;;3.25;;
34019;SDS011;20895;51.034;3.742;2023-07-13T04:34:55;14.63;;;4.68;;
34019;SDS011;20895;51.034;3.742;2023-07-13T04:37:22;12.07;;;3.85;;
34019;SDS011;20895;51.034;3.742;2023-07-13T04:39:47;10.77;;;3.85;;
34019;SDS011;20895;51.034;3.742;2023-07-13T04:42:12;12.23;;;4.13;;
34019;SDS011;20895;51.034;3.742;2023-07-13T04:44:38;12.23;;;4.35;;
34019;SDS011;20895;51.034;3.742;2023-07-13T04:47:03;11.52;;;4.20;;
34019;SDS011;20895;51.034;3.742;2023-07-13T04:49:28;12.10;;;4.30;;
34019;SDS011;20895;51.034;3.742;2023-07-13T04:51:54;12.18;;;4.10;;
34019;SDS011;20895;51.034;3.742;2023-07-13T04:54:19;12.00;;;3.40;;
34019;SDS011;20895;51.034;3.742;2023-07-13T04:56:45;8.77;;;3.65;;
34019;SDS011;20895;51.034;3.742;2023-07-13T04:59:10;12.52;;;3.72;;
34019;SDS011;20895;51.034;3.742;2023-07-13T05:01:35;19.70;;;6.72;;
34019;SDS011;20895;51.034;3.742;2023-07-13T05:04:01;10.63;;;3.88;;
34019;SDS011;20895;51.034;3.742;2023-07-13T05:06:26;12.60;;;3.85;;
34019;SDS011;20895;51.034;3.742;2023-07-13T05:08:51;12.70;;;4.22;;
34019;SDS011;20895;51.034;3.742;2023-07-13T05:11:17;15.35;;;3.65;;
34019;SDS011;20895;51.034;3.742;2023-07-13T05:13:43;11.63;;;4.43;;
34019;SDS011;20895;51.034;3.742;2023-07-13T05:16:08;11.05;;;4.03;;
34019;SDS011;20895;51.034;3.742;2023-07-13T05:18:33;14.45;;;4.35;;
34019;SDS011;20895;51.034;3.742;2023-07-13T05:23:24;15.40;;;3.80;;
34019;SDS011;20895;51.034;3.742;2023-07-13T05:25:49;13.77;;;5.03;;
34019;SDS011;20895;51.034;3.742;2023-07-13T05:28:14;15.90;;;4.03;;
34019;SDS011;20895;51.034;3.742;2023-07-13T05:30:40;12.93;;;4.03;;
34019;SDS011;20895;51.034;3.742;2023-07-13T05:33:05;6.85;;;3.25;;
34019;SDS011;20895;51.034;3.742;2023-07-13T05:35:30;12.75;;;3.58;;
34019;SDS011;20895;51.034;3.742;2023-07-13T05:37:55;14.43;;;4.78;;
34019;SDS011;20895;51.034;3.742;2023-07-13T05:40:21;13.55;;;3.72;;
34019;SDS011;20895;51.034;3.742;2023-07-13T05:42:46;12.77;;;4.43;;
34019;SDS011;20895;51.034;3.742;2023-07-13T05:45:11;15.10;;;5.03;;
34019;SDS011;20895;51.034;3.742;2023-07-13T05:47:36;10.25;;;3.67;;
34019;SDS011;20895;51.034;3.742;2023-07-13T05:50:02;16.38;;;6.63;;
34019;SDS011;20895;51.034;3.742;2023-07-13T05:52:27;9.30;;;3.55;;
34019;SDS011;20895;51.034;3.742;2023-07-13T05:54:53;12.90;;;4.13;;
34019;SDS011;20895;51.034;3.742;2023-07-13T05:57:18;14.35;;;4.30;;
34019;SDS011;20895;51.034;3.742;2023-07-13T05:59:43;10.77;;;4.78;;
34019;SDS011;20895;51.034;3.742;2023-07-13T06:02:09;8.80;;;3.15;;
34019;SDS011;20895;51.034;3.742;2023-07-13T06:04:35;15.82;;;5.57;;
34019;SDS011;20895;51.034;3.742;2023-07-13T06:07:00;10.45;;;3.40;;
34019;SDS011;20895;51.034;3.742;2023-07-13T06:09:26;13.85;;;4.82;;
34019;SDS011;20895;51.034;3.742;2023-07-13T06:11:51;12.57;;;3.47;;
34019;SDS011;20895;51.034;3.742;2023-07-13T06:14:16;14.52;;;4.22;;
34019;SDS011;20895;51.034;3.742;2023-07-13T06:16:41;13.32;;;5.03;;
34019;SDS011;20895;51.034;3.742;2023-07-13T06:19:07;14.32;;;4.80;;
34019;SDS011;20895;51.034;3.742;2023-07-13T06:21:32;8.20;;;4.07;;
34019;SDS011;20895;51.034;3.742;2023-07-13T06:23:57;9.88;;;3.83;;
34019;SDS011;20895;51.034;3.742;2023-07-13T06:26:22;11.98;;;3.63;;
34019;SDS011;20895;51.034;3.742;2023-07-13T06:28:48;10.27;;;3.95;;
34019;SDS011;20895;51.034;3.742;2023-07-13T06:31:13;10.95;;;3.67;;
34019;SDS011;20895;51.034;3.742;2023-07-13T06:33:39;9.85;;;3.40;;
34019;SDS011;20895;51.034;3.742;2023-07-13T06:36:05;10.20;;;3.80;;
34019;SDS011;20895;51.034;3.742;2023-07-13T06:38:30;10.75;;;3.63;;
34019;SDS011;20895;51.034;3.742;2023-07-13T06:40:55;13.52;;;4.05;;
34019;SDS011;20895;51.034;3.742;2023-07-13T06:43:21;15.18;;;3.95;;
34019;SDS011;20895;51.034;3.742;2023-07-13T06:45:46;12.02;;;5.45;;
34019;SDS011;20895;51.034;3.742;2023-07-13T06:48:14;14.60;;;5.18;;
34019;SDS011;20895;51.034;3.742;2023-07-13T06:50:40;14.90;;;3.97;;
34019;SDS011;20895;51.034;3.742;2023-07-13T06:53:06;9.82;;;4.07;;
34019;SDS011;20895;51.034;3.742;2023-07-13T06:55:31;13.27;;;3.38;;
34019;SDS011;20895;51.034;3.742;2023-07-13T06:57:57;12.07;;;4.60;;
34019;SDS011;20895;51.034;3.742;2023-07-13T07:00:22;11.25;;;3.78;;
34019;SDS011;20895;51.034;3.742;2023-07-13T07:02:47;12.05;;;3.65;;
34019;SDS011;20895;51.034;3.742;2023-07-13T07:05:13;14.18;;;4.53;;
34019;SDS011;20895;51.034;3.742;2023-07-13T07:07:38;16.48;;;4.05;;
34019;SDS011;20895;51.034;3.742;2023-07-13T07:10:03;17.73;;;4.10;;
34019;SDS011;20895;51.034;3.742;2023-07-13T07:12:29;10.00;;;3.67;;
34019;SDS011;20895;51.034;3.742;2023-07-13T07:14:54;12.80;;;4.22;;
34019;SDS011;20895;51.034;3.742;2023-07-13T07:17:19;13.55;;;3.47;;
34019;SDS011;20895;51.034;3.742;2023-07-13T07:19:45;11.55;;;3.83;;
34019;SDS011;20895;51.034;3.742;2023-07-13T07:22:10;9.40;;;3.45;;
34019;SDS011;20895;51.034;3.742;2023-07-13T07:24:35;9.50;;;3.53;;
34019;SDS011;20895;51.034;3.742;2023-07-13T07:27:01;18.90;;;6.50;;
34019;SDS011;20895;51.034;3.742;2023-07-13T07:29:26;10.73;;;3.58;;
34019;SDS011;20895;51.034;3.742;2023-07-13T07:31:52;15.48;;;4.30;;
34019;SDS011;20895;51.034;3.742;2023-07-13T07:34:18;8.02;;;3.45;;
34019;SDS011;20895;51.034;3.742;2023-07-13T07:36:43;13.02;;;3.78;;
34019;SDS011;20895;51.034;3.742;2023-07-13T07:39:08;11.65;;;3.35;;
34019;SDS011;20895;51.034;3.742;2023-07-13T07:41:34;12.55;;;3.17;;
34019;SDS011;20895;51.034;3.742;2023-07-13T07:43:59;9.15;;;2.97;;
34019;SDS011;20895;51.034;3.742;2023-07-13T07:46:24;7.68;;;2.70;;
34019;SDS011;20895;51.034;3.742;2023-07-13T07:48:49;6.63;;;2.40;;
34019;SDS011;20895;51.034;3.742;2023-07-13T07:51:15;10.15;;;2.83;;
34019;SDS011;20895;51.034;3.742;2023-07-13T07:53:40;8.75;;;2.63;;
34019;SDS011;20895;51.034;3.742;2023-07-13T07:56:05;8.68;;;2.20;;
34019;SDS011;20895;51.034;3.742;2023-07-13T07:58:35;5.72;;;2.60;;
34019;SDS011;20895;51.034;3.742;2023-07-13T08:01:04;9.23;;;2.50;;
34019;SDS011;20895;51.034;3.742;2023-07-13T08:03:30;9.38;;;2.60;;
34019;SDS011;20895;51.034;3.742;2023-07-13T08:05:55;7.15;;;2.20;;
34019;SDS011;20895;51.034;3.742;2023-07-13T08:08:20;10.65;;;2.85;;
34019;SDS011;20895;51.034;3.742;2023-07-13T08:10:45;9.93;;;2.47;;
34019;SDS011;20895;51.034;3.742;2023-07-13T08:13:11;6.75;;;2.33;;
34019;SDS011;20895;51.034;3.742;2023-07-13T08:15:36;7.93;;;2.17;;
34019;SDS011;20895;51.034;3.742;2023-07-13T08:18:01;8.90;;;2.67;;
34019;SDS011;20895;51.034;3.742;2023-07-13T08:20:27;7.50;;;2.60;;
34019;SDS011;20895;51.034;3.742;2023-07-13T08:22:52;7.82;;;2.15;;
34019;SDS011;20895;51.034;3.742;2023-07-13T08:25:17;8.23;;;2.83;;
34019;SDS011;20895;51.034;3.742;2023-07-13T08:27:43;7.93;;;2.78;;
34019;SDS011;20895;51.034;3.742;2023-07-13T08:30:08;12.38;;;2.72;;
34019;SDS011;20895;51.034;3.742;2023-07-13T08:32:34;8.10;;;2.40;;
34019;SDS011;20895;51.034;3.742;2023-07-13T08:34:59;13.75;;;4.18;;
34019;SDS011;20895;51.034;3.742;2023-07-13T08:37:25;11.48;;;3.10;;
34019;SDS011;20895;51.034;3.742;2023-07-13T08:39:50;11.07;;;3.15;;
34019;SDS011;20895;51.034;3.742;2023-07-13T08:47:08;6.22;;;1.88;;
34019;SDS011;20895;51.034;3.742;2023-07-13T08:49:34;7.93;;;2.92;;
34019;SDS011;20895;51.034;3.742;2023-07-13T08:52:02;6.85;;;2.08;;
34019;SDS011;20895;51.034;3.742;2023-07-13T08:54:36;10.57;;;3.20;;
34019;SDS011;20895;51.034;3.742;2023-07-13T08:57:08;10.13;;;2.83;;
34019;SDS011;20895;51.034;3.742;2023-07-13T08:59:35;7.73;;;2.10;;
34019;SDS011;20895;51.034;3.742;2023-07-13T09:04:48;7.60;;;2.38;;
34019;SDS011;20895;51.034;3.742;2023-07-13T09:14:55;5.38;;;1.50;;
34019;SDS011;20895;51.034;3.742;2023-07-13T09:17:26;5.13;;;1.58;;
34019;SDS011;20895;51.034;3.742;2023-07-13T09:20:03;5.70;;;2.00;;
34019;SDS011;20895;51.034;3.742;2023-07-13T09:22:29;5.55;;;2.78;;
34019;SDS011;20895;51.034;3.742;2023-07-13T09:28:02;5.53;;;1.95;;
34019;SDS011;20895;51.034;3.742;2023-07-13T09:30:34;5.45;;;1.60;;
34019;SDS011;20895;51.034;3.742;2023-07-13T09:33:01;6.05;;;1.55;;
34019;SDS011;20895;51.034;3.742;2023-07-13T09:35:27;7.85;;;2.00;;
34019;SDS011;20895;51.034;3.742;2023-07-13T09:37:57;9.07;;;2.15;;
34019;SDS011;20895;51.034;3.742;2023-07-13T09:43:20;10.32;;;2.15;;
34019;SDS011;20895;51.034;3.742;2023-07-13T09:45:46;3.92;;;1.52;;
34019;SDS011;20895;51.034;3.742;2023-07-13T09:48:15;7.75;;;1.80;;
34019;SDS011;20895;51.034;3.742;2023-07-13T09:50:42;6.00;;;1.67;;
34019;SDS011;20895;51.034;3.742;2023-07-13T09:53:11;7.03;;;2.53;;
34019;SDS011;20895;51.034;3.742;2023-07-13T09:55:37;5.32;;;2.08;;
34019;SDS011;20895;51.034;3.742;2023-07-13T10:00:38;5.65;;;2.03;;
34019;SDS011;20895;51.034;3.742;2023-07-13T10:03:27;4.88;;;1.65;;
34019;SDS011;20895;51.034;3.742;2023-07-13T10:05:51;8.02;;;2.10;;
34019;SDS011;20895;51.034;3.742;2023-07-13T10:10:43;9.35;;;2.35;;
34019;SDS011;20895;51.034;3.742;2023-07-13T10:13:24;9.55;;;1.73;;
34019;SDS011;20895;51.034;3.742;2023-07-13T10:15:51;6.53;;;2.33;;
34019;SDS011;20895;51.034;3.742;2023-07-13T10:18:16;6.00;;;1.67;;
34019;SDS011;20895;51.034;3.742;2023-07-13T10:20:42;5.63;;;1.42;;
34019;SDS011;20895;51.034;3.742;2023-07-13T10:23:10;6.22;;;2.00;;
34019;SDS011;20895;51.034;3.742;2023-07-13T10:25:39;5.35;;;1.85;;
34019;SDS011;20895;51.034;3.742;2023-07-13T10:28:11;6.97;;;1.95;;
34019;SDS011;20895;51.034;3.742;2023-07-13T10:30:39;6.35;;;1.88;;
34019;SDS011;20895;51.034;3.742;2023-07-13T10:33:08;6.45;;;1.73;;
34019;SDS011;20895;51.034;3.742;2023-07-13T10:35:35;9.95;;;2.53;;
34019;SDS011;20895;51.034;3.742;2023-07-13T10:38:05;3.13;;;1.25;;
34019;SDS011;20895;51.034;3.742;2023-07-13T10:40:39;5.60;;;1.75;;
34019;SDS011;20895;51.034;3.742;2023-07-13T10:43:13;6.93;;;1.40;;
34019;SDS011;20895;51.034;3.742;2023-07-13T10:45:39;5.50;;;1.63;;
34019;SDS011;20895;51.034;3.742;2023-07-13T10:48:05;7.90;;;1.60;;
34019;SDS011;20895;51.034;3.742;2023-07-13T10:50:31;5.60;;;1.77;;
34019;SDS011;20895;51.034;3.742;2023-07-13T10:53:32;6.38;;;2.00;;
34019;SDS011;20895;51.034;3.742;2023-07-13T11:00:53;6.07;;;2.20;;
34019;SDS011;20895;51.034;3.742;2023-07-13T11:03:21;7.95;;;2.75;;
34019;SDS011;20895;51.034;3.742;2023-07-13T11:05:50;7.07;;;2.97;;
34019;SDS011;20895;51.034;3.742;2023-07-13T11:10:52;7.72;;;3.10;;
34019;SDS011;20895;51.034;3.742;2023-07-13T11:16:01;6.85;;;3.40;;
34019;SDS011;20895;51.034;3.742;2023-07-13T11:18:36;4.57;;;2.70;;
34019;SDS011;20895;51.034;3.742;2023-07-13T11:23:41;5.18;;;2.88;;
34019;SDS011;20895;51.034;3.742;2023-07-13T11:26:37;6.68;;;3.28;;
34019;SDS011;20895;51.034;3.742;2023-07-13T11:28:52;5.28;;;3.47;;
34019;SDS011;20895;51.034;3.742;2023-07-13T11:31:17;5.50;;;3.58;;
34019;SDS011;20895;51.034;3.742;2023-07-13T11:33:52;7.70;;;3.40;;
34019;SDS011;20895;51.034;3.742;2023-07-13T11:36:22;6.00;;;2.85;;
34019;SDS011;20895;51.034;3.742;2023-07-13T11:38:51;4.57;;;2.80;;
34019;SDS011;20895;51.034;3.742;2023-07-13T11:41:25;8.65;;;2.67;;
34019;SDS011;20895;51.034;3.742;2023-07-13T11:43:55;4.82;;;2.10;;
34019;SDS011;20895;51.034;3.742;2023-07-13T11:46:25;6.63;;;2.28;;
34019;SDS011;20895;51.034;3.742;2023-07-13T11:48:51;5.32;;;2.10;;
34019;SDS011;20895;51.034;3.742;2023-07-13T11:54:17;5.20;;;2.30;;
34019;SDS011;20895;51.034;3.742;2023-07-13T11:56:45;6.53;;;2.28;;
34019;SDS011;20895;51.034;3.742;2023-07-13T11:59:11;5.07;;;2.22;;
34019;SDS011;20895;51.034;3.742;2023-07-13T12:01:41;6.45;;;2.20;;
34019;SDS011;20895;51.034;3.742;2023-07-13T12:04:08;7.00;;;2.60;;
34019;SDS011;20895;51.034;3.742;2023-07-13T12:06:37;5.40;;;2.05;;
34019;SDS011;20895;51.034;3.742;2023-07-13T12:09:10;6.00;;;2.33;;
34019;SDS011;20895;51.034;3.742;2023-07-13T12:11:38;7.00;;;2.05;;
34019;SDS011;20895;51.034;3.742;2023-07-13T12:14:04;3.97;;;2.17;;
34019;SDS011;20895;51.034;3.742;2023-07-13T12:16:30;5.57;;;1.98;;
34019;SDS011;20895;51.034;3.742;2023-07-13T12:18:58;3.85;;;1.90;;
34019;SDS011;20895;51.034;3.742;2023-07-13T12:21:33;7.10;;;2.22;;
34019;SDS011;20895;51.034;3.742;2023-07-13T12:23:59;7.95;;;2.47;;
34019;SDS011;20895;51.034;3.742;2023-07-13T12:26:26;9.88;;;2.70;;
34019;SDS011;20895;51.034;3.742;2023-07-13T12:28:52;8.73;;;3.05;;
34019;SDS011;20895;51.034;3.742;2023-07-13T12:33:55;5.72;;;2.42;;
34019;SDS011;20895;51.034;3.742;2023-07-13T12:36:20;4.95;;;2.00;;
34019;SDS011;20895;51.034;3.742;2023-07-13T12:38:46;4.35;;;2.00;;
34019;SDS011;20895;51.034;3.742;2023-07-13T12:41:12;6.22;;;2.63;;
34019;SDS011;20895;51.034;3.742;2023-07-13T12:43:37;6.68;;;2.13;;
34019;SDS011;20895;51.034;3.742;2023-07-13T12:46:04;8.05;;;2.08;;
34019;SDS011;20895;51.034;3.742;2023-07-13T12:48:30;5.00;;;2.10;;
34019;SDS011;20895;51.034;3.742;2023-07-13T12:50:55;6.20;;;2.58;;
34019;SDS011;20895;51.034;3.742;2023-07-13T12:53:22;7.30;;;1.90;;
34019;SDS011;20895;51.034;3.742;2023-07-13T12:58:17;6.97;;;2.47;;
34019;SDS011;20895;51.034;3.742;2023-07-13T13:00:47;4.18;;;1.92;;
34019;SDS011;20895;51.034;3.742;2023-07-13T13:05:44;5.82;;;2.10;;
34019;SDS011;20895;51.034;3.742;2023-07-13T13:08:11;5.93;;;2.67;;
34019;SDS011;20895;51.034;3.742;2023-07-13T13:10:36;4.88;;;1.92;;
34019;SDS011;20895;51.034;3.742;2023-07-13T13:13:01;4.82;;;1.38;;
34019;SDS011;20895;51.034;3.742;2023-07-13T13:15:28;8.82;;;2.35;;
34019;SDS011;20895;51.034;3.742;2023-07-13T13:17:54;4.43;;;1.70;;
34019;SDS011;20895;51.034;3.742;2023-07-13T13:20:20;5.85;;;1.73;;
34019;SDS011;20895;51.034;3.742;2023-07-13T13:22:46;6.68;;;1.88;;
34019;SDS011;20895;51.034;3.742;2023-07-13T13:25:12;3.30;;;1.48;;
34019;SDS011;20895;51.034;3.742;2023-07-13T13:27:37;3.85;;;1.70;;
34019;SDS011;20895;51.034;3.742;2023-07-13T13:30:05;2.55;;;1.15;;
34019;SDS011;20895;51.034;3.742;2023-07-13T13:32:34;2.28;;;1.40;;
34019;SDS011;20895;51.034;3.742;2023-07-13T13:34:59;4.45;;;1.77;;
34019;SDS011;20895;51.034;3.742;2023-07-13T13:37:24;4.80;;;1.63;;
34019;SDS011;20895;51.034;3.742;2023-07-13T13:39:51;3.45;;;1.58;;
34019;SDS011;20895;51.034;3.742;2023-07-13T13:42:17;3.53;;;1.30;;
34019;SDS011;20895;51.034;3.742;2023-07-13T13:44:42;2.63;;;1.98;;
34019;SDS011;20895;51.034;3.742;2023-07-13T13:47:17;3.17;;;1.38;;
34019;SDS011;20895;51.034;3.742;2023-07-13T13:49:45;5.80;;;1.35;;
34019;SDS011;20895;51.034;3.742;2023-07-13T13:52:10;3.40;;;0.95;;
34019;SDS011;20895;51.034;3.742;2023-07-13T13:54:35;3.53;;;1.35;;
34019;SDS011;20895;51.034;3.742;2023-07-13T13:57:01;5.50;;;1.50;;
34019;SDS011;20895;51.034;3.742;2023-07-13T13:59:26;2.67;;;1.15;;
34019;SDS011;20895;51.034;3.742;2023-07-13T14:01:51;4.25;;;1.35;;
34019;SDS011;20895;51.034;3.742;2023-07-13T14:04:18;5.60;;;1.77;;
34019;SDS011;20895;51.034;3.742;2023-07-13T14:06:44;2.88;;;1.30;;
34019;SDS011;20895;51.034;3.742;2023-07-13T14:09:10;2.38;;;1.08;;
34019;SDS011;20895;51.034;3.742;2023-07-13T14:11:36;3.58;;;1.10;;
34019;SDS011;20895;51.034;3.742;2023-07-13T14:14:01;2.15;;;1.08;;
34019;SDS011;20895;51.034;3.742;2023-07-13T14:16:29;2.58;;;1.23;;
34019;SDS011;20895;51.034;3.742;2023-07-13T14:18:56;2.15;;;1.10;;
34019;SDS011;20895;51.034;3.742;2023-07-13T14:21:24;2.65;;;1.98;;
34019;SDS011;20895;51.034;3.742;2023-07-13T14:23:50;3.72;;;1.58;;
34019;SDS011;20895;51.034;3.742;2023-07-13T14:26:17;3.13;;;1.50;;
34019;SDS011;20895;51.034;3.742;2023-07-13T14:28:44;2.13;;;1.30;;
34019;SDS011;20895;51.034;3.742;2023-07-13T14:31:11;3.53;;;1.30;;
34019;SDS011;20895;51.034;3.742;2023-07-13T14:33:37;3.03;;;1.73;;
34019;SDS011;20895;51.034;3.742;2023-07-13T14:36:03;2.30;;;1.45;;
34019;SDS011;20895;51.034;3.742;2023-07-13T14:38:34;3.05;;;1.60;;
34019;SDS011;20895;51.034;3.742;2023-07-13T14:40:59;3.87;;;1.30;;
34019;SDS011;20895;51.034;3.742;2023-07-13T14:43:24;2.03;;;1.15;;
34019;SDS011;20895;51.034;3.742;2023-07-13T14:45:53;1.73;;;0.98;;
34019;SDS011;20895;51.034;3.742;2023-07-13T14:48:21;3.30;;;1.30;;
34019;SDS011;20895;51.034;3.742;2023-07-13T14:50:49;1.67;;;1.00;;
34019;SDS011;20895;51.034;3.742;2023-07-13T14:53:15;4.75;;;1.38;;
34019;SDS011;20895;51.034;3.742;2023-07-13T14:55:40;3.80;;;1.33;;
34019;SDS011;20895;51.034;3.742;2023-07-13T14:58:07;2.17;;;1.17;;
34019;SDS011;20895;51.034;3.742;2023-07-13T15:00:32;3.13;;;1.02;;
34019;SDS011;20895;51.034;3.742;2023-07-13T15:02:58;3.67;;;1.38;;
34019;SDS011;20895;51.034;3.742;2023-07-13T15:05:26;2.35;;;0.95;;
34019;SDS011;20895;51.034;3.742;2023-07-13T15:07:52;3.50;;;1.13;;
34019;SDS011;20895;51.034;3.742;2023-07-13T15:10:25;2.88;;;1.55;;
34019;SDS011;20895;51.034;3.742;2023-07-13T15:12:51;2.72;;;1.25;;
34019;SDS011;20895;51.034;3.742;2023-07-13T15:15:17;2.72;;;1.17;;
34019;SDS011;20895;51.034;3.742;2023-07-13T15:17:45;4.22;;;1.65;;
34019;SDS011;20895;51.034;3.742;2023-07-13T15:22:36;3.35;;;1.38;;
34019;SDS011;20895;51.034;3.742;2023-07-13T15:25:01;3.38;;;1.20;;
34019;SDS011;20895;51.034;3.742;2023-07-13T15:27:28;3.20;;;1.20;;
34019;SDS011;20895;51.034;3.742;2023-07-13T15:29:54;4.53;;;1.10;;